sensor_id;sensor_type;location;lat;lon;timestamp;pressure;altitude;pressure_sealevel;temperature;humidity
27984;BME280;15317;50.360;8.726;2023-03-16T00:00:41;99974.63;;;-1.27;100.00
27984;BME280;15317;50.360;8.726;2023-03-16T00:04:43;99979.09;;;-1.27;100.00
27984;BME280;15317;50.360;8.726;2023-03-16T00:08:47;99966.94;;;-1.33;100.00
27984;BME280;15317;50.360;8.726;2023-03-16T00:12:50;99967.88;;;-1.34;100.00
27984;BME280;15317;50.360;8.726;2023-03-16T00:16:53;99970.59;;;-1.35;100.00
27984;BME280;15317;50.360;8.726;2023-03-16T00:20:57;99970.69;;;-1.37;100.00
27984;BME280;15317;50.360;8.726;2023-03-16T00:25:02;99973.50;;;-1.40;100.00
27984;BME280;15317;50.360;8.726;2023-03-16T00:29:05;99967.47;;;-1.43;100.00
27984;BME280;15317;50.360;8.726;2023-03-16T00:33:07;99964.94;;;-1.46;100.00
27984;BME280;15317;50.360;8.726;2023-03-16T00:37:11;99955.28;;;-1.49;100.00
27984;BME280;15317;50.360;8.726;2023-03-16T00:41:15;99972.19;;;-1.50;100.00
27984;BME280;15317;50.360;8.726;2023-03-16T00:45:18;99965.16;;;-1.51;100.00
27984;BME280;15317;50.360;8.726;2023-03-16T00:49:20;99949.31;;;-1.54;100.00
27984;BME280;15317;50.360;8.726;2023-03-16T00:53:23;99954.63;;;-1.54;100.00
27984;BME280;15317;50.360;8.726;2023-03-16T00:57:25;99956.50;;;-1.56;100.00
27984;BME280;15317;50.360;8.726;2023-03-16T01:01:31;99949.47;;;-1.57;100.00
27984;BME280;15317;50.360;8.726;2023-03-16T01:05:38;99949.47;;;-1.57;100.00
27984;BME280;15317;50.360;8.726;2023-03-16T01:09:41;99936.16;;;-1.57;100.00
27984;BME280;15317;50.360;8.726;2023-03-16T01:13:44;99945.84;;;-1.56;100.00
27984;BME280;15317;50.360;8.726;2023-03-16T01:17:49;99947.81;;;-1.60;100.00
27984;BME280;15317;50.360;8.726;2023-03-16T01:21:51;99943.41;;;-1.61;100.00
27984;BME280;15317;50.360;8.726;2023-03-16T01:25:53;99937.09;;;-1.58;100.00
27984;BME280;15317;50.360;8.726;2023-03-16T01:29:55;99939.81;;;-1.60;100.00
27984;BME280;15317;50.360;8.726;2023-03-16T01:33:58;99933.75;;;-1.63;100.00
27984;BME280;15317;50.360;8.726;2023-03-16T01:38:02;99940.09;;;-1.66;100.00
27984;BME280;15317;50.360;8.726;2023-03-16T01:42:05;99920.66;;;-1.68;100.00
27984;BME280;15317;50.360;8.726;2023-03-16T01:46:19;99922.41;;;-1.67;100.00
27984;BME280;15317;50.360;8.726;2023-03-16T01:50:24;99919.00;;;-1.70;100.00
27984;BME280;15317;50.360;8.726;2023-03-16T01:54:29;99912.09;;;-1.74;100.00
27984;BME280;15317;50.360;8.726;2023-03-16T01:58:32;99910.38;;;-1.75;100.00
27984;BME280;15317;50.360;8.726;2023-03-16T02:02:34;99899.94;;;-1.80;100.00
27984;BME280;15317;50.360;8.726;2023-03-16T02:06:38;99887.63;;;-1.82;100.00
27984;BME280;15317;50.360;8.726;2023-03-16T02:10:40;99910.94;;;-1.87;100.00
27984;BME280;15317;50.360;8.726;2023-03-16T02:14:44;99927.84;;;-1.88;100.00
27984;BME280;15317;50.360;8.726;2023-03-16T02:18:46;99921.84;;;-1.92;100.00
27984;BME280;15317;50.360;8.726;2023-03-16T02:22:51;99908.34;;;-1.89;100.00
27984;BME280;15317;50.360;8.726;2023-03-16T02:26:57;99903.25;;;-1.93;100.00
27984;BME280;15317;50.360;8.726;2023-03-16T02:31:01;99887.34;;;-1.95;100.00
27984;BME280;15317;50.360;8.726;2023-03-16T02:35:05;99883.81;;;-1.95;100.00
27984;BME280;15317;50.360;8.726;2023-03-16T02:39:08;99874.09;;;-1.96;100.00
27984;BME280;15317;50.360;8.726;2023-03-16T02:43:14;99884.00;;;-1.98;100.00
27984;BME280;15317;50.360;8.726;2023-03-16T02:47:26;99886.66;;;-1.98;100.00
27984;BME280;15317;50.360;8.726;2023-03-16T02:51:29;99881.38;;;-2.00;100.00
27984;BME280;15317;50.360;8.726;2023-03-16T02:55:32;99873.59;;;-2.05;100.00
27984;BME280;15317;50.360;8.726;2023-03-16T02:59:34;99876.34;;;-2.06;100.00
27984;BME280;15317;50.360;8.726;2023-03-16T03:03:37;99856.84;;;-2.07;100.00
27984;BME280;15317;50.360;8.726;2023-03-16T03:07:39;99857.78;;;-2.08;100.00
27984;BME280;15317;50.360;8.726;2023-03-16T03:11:41;99869.38;;;-2.09;100.00
27984;BME280;15317;50.360;8.726;2023-03-16T03:15:43;99872.09;;;-2.10;100.00
27984;BME280;15317;50.360;8.726;2023-03-16T03:19:47;99859.66;;;-2.10;100.00
27984;BME280;15317;50.360;8.726;2023-03-16T03:23:49;99863.25;;;-2.11;100.00
27984;BME280;15317;50.360;8.726;2023-03-16T03:27:51;99856.22;;;-2.12;100.00
27984;BME280;15317;50.360;8.726;2023-03-16T03:31:54;99862.38;;;-2.11;100.00
27984;BME280;15317;50.360;8.726;2023-03-16T03:35:57;99855.41;;;-2.14;100.00
27984;BME280;15317;50.360;8.726;2023-03-16T03:40:01;99854.63;;;-2.16;100.00
27984;BME280;15317;50.360;8.726;2023-03-16T03:44:04;99850.28;;;-2.18;100.00
27984;BME280;15317;50.360;8.726;2023-03-16T03:48:06;99853.97;;;-2.21;100.00
27984;BME280;15317;50.360;8.726;2023-03-16T03:52:09;99861.16;;;-2.23;100.00
27984;BME280;15317;50.360;8.726;2023-03-16T03:56:11;99858.50;;;-2.23;100.00
27984;BME280;15317;50.360;8.726;2023-03-16T04:00:14;99860.22;;;-2.22;100.00
27984;BME280;15317;50.360;8.726;2023-03-16T04:04:20;99849.72;;;-2.25;100.00
27984;BME280;15317;50.360;8.726;2023-03-16T04:08:23;99851.72;;;-2.30;100.00
27984;BME280;15317;50.360;8.726;2023-03-16T04:12:25;99834.03;;;-2.31;100.00
27984;BME280;15317;50.360;8.726;2023-03-16T04:16:27;99850.94;;;-2.32;100.00
27984;BME280;15317;50.360;8.726;2023-03-16T04:20:29;99854.63;;;-2.34;100.00
27984;BME280;15317;50.360;8.726;2023-03-16T04:24:32;99849.28;;;-2.34;100.00
27984;BME280;15317;50.360;8.726;2023-03-16T04:28:35;99850.28;;;-2.37;100.00
27984;BME280;15317;50.360;8.726;2023-03-16T04:32:37;99838.88;;;-2.39;100.00
27984;BME280;15317;50.360;8.726;2023-03-16T04:36:39;99844.19;;;-2.39;100.00
27984;BME280;15317;50.360;8.726;2023-03-16T04:40:43;99832.69;;;-2.40;100.00
27984;BME280;15317;50.360;8.726;2023-03-16T04:44:46;99829.00;;;-2.37;100.00
27984;BME280;15317;50.360;8.726;2023-03-16T04:48:48;99827.28;;;-2.38;100.00
27984;BME280;15317;50.360;8.726;2023-03-16T04:52:50;99819.38;;;-2.40;100.00
27984;BME280;15317;50.360;8.726;2023-03-16T04:56:53;99817.72;;;-2.42;100.00
27984;BME280;15317;50.360;8.726;2023-03-16T05:00:55;99832.88;;;-2.44;100.00
27984;BME280;15317;50.360;8.726;2023-03-16T05:04:57;99828.59;;;-2.47;100.00
27984;BME280;15317;50.360;8.726;2023-03-16T05:08:59;99838.47;;;-2.50;100.00
27984;BME280;15317;50.360;8.726;2023-03-16T05:13:03;99842.06;;;-2.51;100.00
27984;BME280;15317;50.360;8.726;2023-03-16T05:17:05;99835.03;;;-2.52;100.00
27984;BME280;15317;50.360;8.726;2023-03-16T05:21:07;99832.53;;;-2.55;100.00
27984;BME280;15317;50.360;8.726;2023-03-16T05:25:09;99834.31;;;-2.56;100.00
27984;BME280;15317;50.360;8.726;2023-03-16T05:29:15;99830.78;;;-2.56;100.00
27984;BME280;15317;50.360;8.726;2023-03-16T05:33:17;99836.75;;;-2.51;100.00
27984;BME280;15317;50.360;8.726;2023-03-16T05:37:21;99837.56;;;-2.49;100.00
27984;BME280;15317;50.360;8.726;2023-03-16T05:41:23;99837.44;;;-2.46;100.00
27984;BME280;15317;50.360;8.726;2023-03-16T05:45:27;99831.03;;;-2.42;100.00
27984;BME280;15317;50.360;8.726;2023-03-16T05:49:29;99818.38;;;-2.37;100.00
27984;BME280;15317;50.360;8.726;2023-03-16T05:53:32;99818.00;;;-2.29;100.00
27984;BME280;15317;50.360;8.726;2023-03-16T05:57:35;99818.66;;;-2.24;100.00
27984;BME280;15317;50.360;8.726;2023-03-16T06:01:39;99811.91;;;-2.13;100.00
27984;BME280;15317;50.360;8.726;2023-03-16T06:05:41;99810.38;;;-2.00;100.00
27984;BME280;15317;50.360;8.726;2023-03-16T06:09:43;99814.25;;;-1.88;100.00
27984;BME280;15317;50.360;8.726;2023-03-16T06:13:45;99825.97;;;-1.73;100.00
27984;BME280;15317;50.360;8.726;2023-03-16T06:17:48;99829.94;;;-0.94;100.00
27984;BME280;15317;50.360;8.726;2023-03-16T06:21:50;99831.03;;;0.77;100.00
27984;BME280;15317;50.360;8.726;2023-03-16T06:25:52;99834.88;;;2.85;100.00
27984;BME280;15317;50.360;8.726;2023-03-16T06:29:55;99840.19;;;4.97;100.00
27984;BME280;15317;50.360;8.726;2023-03-16T06:33:58;99844.59;;;5.33;96.51
27984;BME280;15317;50.360;8.726;2023-03-16T06:38:00;99841.56;;;6.06;89.94
27984;BME280;15317;50.360;8.726;2023-03-16T06:42:02;99847.25;;;7.52;74.03
27984;BME280;15317;50.360;8.726;2023-03-16T06:46:05;99848.06;;;8.55;67.82
27984;BME280;15317;50.360;8.726;2023-03-16T06:50:09;99843.53;;;7.95;63.67
27984;BME280;15317;50.360;8.726;2023-03-16T06:54:12;99849.91;;;6.79;65.82
27984;BME280;15317;50.360;8.726;2023-03-16T06:58:14;99842.28;;;6.19;69.67
27984;BME280;15317;50.360;8.726;2023-03-16T07:02:16;99845.88;;;5.62;71.77
27984;BME280;15317;50.360;8.726;2023-03-16T07:06:20;99838.69;;;4.93;74.21
27984;BME280;15317;50.360;8.726;2023-03-16T07:10:23;99845.41;;;5.11;74.77
27984;BME280;15317;50.360;8.726;2023-03-16T07:14:25;99851.41;;;4.67;77.23
27984;BME280;15317;50.360;8.726;2023-03-16T07:18:27;99848.06;;;4.40;77.83
27984;BME280;15317;50.360;8.726;2023-03-16T07:22:32;99854.03;;;4.80;79.80
27984;BME280;15317;50.360;8.726;2023-03-16T07:26:34;99851.72;;;4.38;81.09
27984;BME280;15317;50.360;8.726;2023-03-16T07:30:37;99858.56;;;4.19;80.54
27984;BME280;15317;50.360;8.726;2023-03-16T07:34:39;99852.03;;;3.85;83.85
27984;BME280;15317;50.360;8.726;2023-03-16T07:38:43;99851.03;;;4.11;85.91
27984;BME280;15317;50.360;8.726;2023-03-16T07:42:45;99850.75;;;4.40;85.56
27984;BME280;15317;50.360;8.726;2023-03-16T07:46:47;99848.22;;;4.25;84.92
27984;BME280;15317;50.360;8.726;2023-03-16T07:50:49;99851.88;;;4.24;85.56
27984;BME280;15317;50.360;8.726;2023-03-16T07:54:52;99844.94;;;4.09;89.39
27984;BME280;15317;50.360;8.726;2023-03-16T07:58:54;99857.53;;;3.71;88.90
27984;BME280;15317;50.360;8.726;2023-03-16T08:02:56;99852.81;;;3.62;89.47
27984;BME280;15317;50.360;8.726;2023-03-16T08:06:58;99840.97;;;3.77;88.90
27984;BME280;15317;50.360;8.726;2023-03-16T08:11:03;99845.06;;;3.70;91.27
27984;BME280;15317;50.360;8.726;2023-03-16T08:15:06;99846.88;;;3.69;91.77
27984;BME280;15317;50.360;8.726;2023-03-16T08:19:09;99840.13;;;3.89;91.83
27984;BME280;15317;50.360;8.726;2023-03-16T08:23:12;99847.16;;;4.15;91.36
27984;BME280;15317;50.360;8.726;2023-03-16T08:27:16;99846.94;;;4.18;90.07
27984;BME280;15317;50.360;8.726;2023-03-16T08:31:20;99850.53;;;4.43;87.52
27984;BME280;15317;50.360;8.726;2023-03-16T08:35:23;99836.69;;;4.36;88.22
27984;BME280;15317;50.360;8.726;2023-03-16T08:39:25;99832.50;;;4.32;89.81
27984;BME280;15317;50.360;8.726;2023-03-16T08:43:30;99823.19;;;4.49;87.33
27984;BME280;15317;50.360;8.726;2023-03-16T08:47:32;99830.41;;;4.72;87.42
27984;BME280;15317;50.360;8.726;2023-03-16T08:51:34;99830.28;;;4.97;86.63
27984;BME280;15317;50.360;8.726;2023-03-16T08:55:36;99827.25;;;5.48;84.13
27984;BME280;15317;50.360;8.726;2023-03-16T08:59:41;99825.50;;;5.36;82.76
27984;BME280;15317;50.360;8.726;2023-03-16T09:03:45;99824.09;;;5.65;84.08
27984;BME280;15317;50.360;8.726;2023-03-16T09:07:47;99798.25;;;5.85;79.80
27984;BME280;15317;50.360;8.726;2023-03-16T09:11:49;99803.03;;;6.15;79.39
27984;BME280;15317;50.360;8.726;2023-03-16T09:15:53;99813.13;;;6.13;79.51
27984;BME280;15317;50.360;8.726;2023-03-16T09:19:55;99813.78;;;6.59;80.99
27984;BME280;15317;50.360;8.726;2023-03-16T09:23:57;99812.63;;;6.62;79.84
27984;BME280;15317;50.360;8.726;2023-03-16T09:27:59;99813.59;;;6.72;77.94
27984;BME280;15317;50.360;8.726;2023-03-16T09:32:02;99801.88;;;6.94;77.59
27984;BME280;15317;50.360;8.726;2023-03-16T09:36:05;99798.66;;;7.21;77.42
27984;BME280;15317;50.360;8.726;2023-03-16T09:40:18;99796.63;;;7.13;76.54
27984;BME280;15317;50.360;8.726;2023-03-16T09:44:28;99802.34;;;7.61;75.58
27984;BME280;15317;50.360;8.726;2023-03-16T09:48:37;99797.53;;;7.44;73.46
27984;BME280;15317;50.360;8.726;2023-03-16T09:52:43;99781.84;;;7.59;74.21
27984;BME280;15317;50.360;8.726;2023-03-16T09:56:47;99795.09;;;7.92;71.92
27984;BME280;15317;50.360;8.726;2023-03-16T10:00:59;99795.81;;;8.24;69.54
27984;BME280;15317;50.360;8.726;2023-03-16T10:05:07;99789.03;;;8.40;69.04
27984;BME280;15317;50.360;8.726;2023-03-16T10:09:20;99793.63;;;8.49;69.25
27984;BME280;15317;50.360;8.726;2023-03-16T10:13:33;99790.50;;;8.63;67.43
27984;BME280;15317;50.360;8.726;2023-03-16T10:17:39;99794.66;;;8.17;68.21
27984;BME280;15317;50.360;8.726;2023-03-16T10:21:46;99797.59;;;8.14;67.44
27984;BME280;15317;50.360;8.726;2023-03-16T10:25:50;99791.28;;;8.35;67.16
27984;BME280;15317;50.360;8.726;2023-03-16T10:29:53;99790.34;;;8.55;67.58
27984;BME280;15317;50.360;8.726;2023-03-16T10:34:01;99779.09;;;8.50;69.23
27984;BME280;15317;50.360;8.726;2023-03-16T10:38:08;99783.78;;;8.48;66.05
27984;BME280;15317;50.360;8.726;2023-03-16T10:42:15;99785.88;;;8.35;68.05
27984;BME280;15317;50.360;8.726;2023-03-16T10:46:18;99780.97;;;8.59;68.01
27984;BME280;15317;50.360;8.726;2023-03-16T10:50:24;99771.28;;;8.76;65.44
27984;BME280;15317;50.360;8.726;2023-03-16T10:54:30;99773.13;;;8.75;64.81
27984;BME280;15317;50.360;8.726;2023-03-16T10:58:38;99761.03;;;8.79;63.00
27984;BME280;15317;50.360;8.726;2023-03-16T11:02:42;99759.72;;;9.12;64.45
27984;BME280;15317;50.360;8.726;2023-03-16T11:06:50;99749.00;;;9.30;63.55
27984;BME280;15317;50.360;8.726;2023-03-16T11:10:56;99755.03;;;9.14;63.17
27984;BME280;15317;50.360;8.726;2023-03-16T11:15:00;99753.44;;;9.02;61.64
27984;BME280;15317;50.360;8.726;2023-03-16T11:19:12;99752.44;;;8.74;61.62
27984;BME280;15317;50.360;8.726;2023-03-16T11:23:20;99744.63;;;8.52;63.61
27984;BME280;15317;50.360;8.726;2023-03-16T11:27:34;99742.91;;;8.60;65.26
27984;BME280;15317;50.360;8.726;2023-03-16T11:31:42;99740.94;;;8.91;64.68
27984;BME280;15317;50.360;8.726;2023-03-16T11:35:51;99722.09;;;8.99;61.77
27984;BME280;15317;50.360;8.726;2023-03-16T11:40:01;99725.78;;;9.18;62.61
27984;BME280;15317;50.360;8.726;2023-03-16T11:44:22;99720.94;;;9.11;60.90
27984;BME280;15317;50.360;8.726;2023-03-16T11:48:36;99729.03;;;9.40;62.55
27984;BME280;15317;50.360;8.726;2023-03-16T11:52:47;99721.22;;;9.08;63.55
27984;BME280;15317;50.360;8.726;2023-03-16T11:56:53;99710.53;;;9.63;63.01
27984;BME280;15317;50.360;8.726;2023-03-16T12:01:07;99695.97;;;9.64;60.16
27984;BME280;15317;50.360;8.726;2023-03-16T12:05:24;99691.22;;;9.39;60.73
27984;BME280;15317;50.360;8.726;2023-03-16T12:09:49;99698.38;;;9.67;61.55
27984;BME280;15317;50.360;8.726;2023-03-16T12:14:13;99702.38;;;10.27;61.03
27984;BME280;15317;50.360;8.726;2023-03-16T12:18:22;99702.09;;;10.48;59.33
27984;BME280;15317;50.360;8.726;2023-03-16T12:22:28;99695.25;;;10.44;60.25
27984;BME280;15317;50.360;8.726;2023-03-16T12:26:36;99688.53;;;10.48;59.80
27984;BME280;15317;50.360;8.726;2023-03-16T12:30:48;99678.13;;;10.44;60.35
27984;BME280;15317;50.360;8.726;2023-03-16T12:34:59;99676.63;;;10.32;58.79
27984;BME280;15317;50.360;8.726;2023-03-16T12:39:05;99660.44;;;10.57;61.54
27984;BME280;15317;50.360;8.726;2023-03-16T12:43:22;99665.00;;;10.39;61.08
27984;BME280;15317;50.360;8.726;2023-03-16T12:47:32;99664.31;;;10.55;60.37
27984;BME280;15317;50.360;8.726;2023-03-16T12:51:42;99636.44;;;10.71;60.07
27984;BME280;15317;50.360;8.726;2023-03-16T12:55:45;99653.03;;;10.67;58.73
27984;BME280;15317;50.360;8.726;2023-03-16T12:59:48;99650.41;;;10.40;59.29
27984;BME280;15317;50.360;8.726;2023-03-16T13:04:01;99630.66;;;10.30;60.74
27984;BME280;15317;50.360;8.726;2023-03-16T13:08:07;99626.84;;;10.23;61.38
27984;BME280;15317;50.360;8.726;2023-03-16T13:12:21;99632.19;;;9.87;60.78
27984;BME280;15317;50.360;8.726;2023-03-16T13:16:26;99623.75;;;9.63;61.81
27984;BME280;15317;50.360;8.726;2023-03-16T13:20:31;99618.81;;;9.49;61.93
27984;BME280;15317;50.360;8.726;2023-03-16T13:24:37;99599.09;;;9.57;64.26
27984;BME280;15317;50.360;8.726;2023-03-16T13:28:41;99593.91;;;9.63;62.70
27984;BME280;15317;50.360;8.726;2023-03-16T13:32:47;99595.06;;;9.88;64.13
27984;BME280;15317;50.360;8.726;2023-03-16T13:36:53;99604.28;;;10.13;62.41
27984;BME280;15317;50.360;8.726;2023-03-16T13:41:03;99601.16;;;9.72;61.23
27984;BME280;15317;50.360;8.726;2023-03-16T13:45:12;99593.28;;;9.69;63.00
27984;BME280;15317;50.360;8.726;2023-03-16T13:49:14;99593.03;;;9.90;62.98
27984;BME280;15317;50.360;8.726;2023-03-16T13:53:21;99601.63;;;9.85;61.87
27984;BME280;15317;50.360;8.726;2023-03-16T13:57:27;99581.88;;;9.75;61.86
27984;BME280;15317;50.360;8.726;2023-03-16T14:01:30;99576.59;;;9.74;62.85
27984;BME280;15317;50.360;8.726;2023-03-16T14:05:33;99577.97;;;9.78;63.64
27984;BME280;15317;50.360;8.726;2023-03-16T14:09:36;99564.69;;;9.57;62.44
27984;BME280;15317;50.360;8.726;2023-03-16T14:13:39;99562.63;;;9.69;63.91
27984;BME280;15317;50.360;8.726;2023-03-16T14:17:42;99554.56;;;9.77;64.34
27984;BME280;15317;50.360;8.726;2023-03-16T14:21:45;99547.50;;;9.66;64.89
27984;BME280;15317;50.360;8.726;2023-03-16T14:25:47;99544.56;;;9.60;63.75
27984;BME280;15317;50.360;8.726;2023-03-16T14:29:53;99527.44;;;9.32;64.41
27984;BME280;15317;50.360;8.726;2023-03-16T14:33:59;99516.28;;;9.35;65.85
27984;BME280;15317;50.360;8.726;2023-03-16T14:38:18;99516.91;;;9.29;66.97
27984;BME280;15317;50.360;8.726;2023-03-16T14:42:26;99523.75;;;9.33;66.72
27984;BME280;15317;50.360;8.726;2023-03-16T14:46:31;99521.28;;;9.39;66.62
27984;BME280;15317;50.360;8.726;2023-03-16T14:50:34;99519.44;;;9.40;66.57
27984;BME280;15317;50.360;8.726;2023-03-16T14:54:36;99507.59;;;9.14;65.65
27984;BME280;15317;50.360;8.726;2023-03-16T14:58:38;99500.59;;;9.11;65.42
27984;BME280;15317;50.360;8.726;2023-03-16T15:02:44;99501.25;;;9.23;67.77
27984;BME280;15317;50.360;8.726;2023-03-16T15:06:46;99494.53;;;9.27;65.96
27984;BME280;15317;50.360;8.726;2023-03-16T15:10:49;99494.38;;;9.28;66.80
27984;BME280;15317;50.360;8.726;2023-03-16T15:14:51;99491.06;;;9.34;67.04
27984;BME280;15317;50.360;8.726;2023-03-16T15:19:12;99495.28;;;9.19;67.76
27984;BME280;15317;50.360;8.726;2023-03-16T15:23:15;99502.84;;;9.16;67.97
27984;BME280;15317;50.360;8.726;2023-03-16T15:27:19;99491.97;;;8.98;67.07
27984;BME280;15317;50.360;8.726;2023-03-16T15:31:22;99486.94;;;9.03;67.39
27984;BME280;15317;50.360;8.726;2023-03-16T15:35:25;99475.69;;;9.07;67.89
27984;BME280;15317;50.360;8.726;2023-03-16T15:39:27;99469.66;;;9.14;68.09
27984;BME280;15317;50.360;8.726;2023-03-16T15:43:29;99462.53;;;9.13;66.30
27984;BME280;15317;50.360;8.726;2023-03-16T15:47:31;99462.81;;;9.09;66.85
27984;BME280;15317;50.360;8.726;2023-03-16T15:51:35;99456.50;;;9.19;65.80
27984;BME280;15317;50.360;8.726;2023-03-16T15:55:38;99449.91;;;9.21;65.56
27984;BME280;15317;50.360;8.726;2023-03-16T15:59:42;99449.09;;;9.21;65.86
27984;BME280;15317;50.360;8.726;2023-03-16T16:03:45;99447.75;;;9.25;66.43
27984;BME280;15317;50.360;8.726;2023-03-16T16:07:49;99447.50;;;9.18;67.10
27984;BME280;15317;50.360;8.726;2023-03-16T16:11:51;99440.84;;;9.13;66.55
27984;BME280;15317;50.360;8.726;2023-03-16T16:15:53;99438.75;;;9.06;67.28
27984;BME280;15317;50.360;8.726;2023-03-16T16:19:56;99433.56;;;9.13;68.08
27984;BME280;15317;50.360;8.726;2023-03-16T16:24:00;99423.00;;;8.92;67.33
27984;BME280;15317;50.360;8.726;2023-03-16T16:28:07;99420.97;;;8.94;68.01
27984;BME280;15317;50.360;8.726;2023-03-16T16:32:22;99418.09;;;8.78;68.19
27984;BME280;15317;50.360;8.726;2023-03-16T16:36:24;99418.69;;;8.72;69.39
27984;BME280;15317;50.360;8.726;2023-03-16T16:40:34;99421.16;;;8.65;69.89
27984;BME280;15317;50.360;8.726;2023-03-16T16:44:38;99411.06;;;8.58;70.20
27984;BME280;15317;50.360;8.726;2023-03-16T16:48:44;99418.06;;;8.51;70.57
27984;BME280;15317;50.360;8.726;2023-03-16T16:52:47;99417.50;;;8.47;71.56
27984;BME280;15317;50.360;8.726;2023-03-16T16:56:51;99416.97;;;8.34;71.56
27984;BME280;15317;50.360;8.726;2023-03-16T17:00:55;99417.00;;;8.24;72.63
27984;BME280;15317;50.360;8.726;2023-03-16T17:04:58;99417.28;;;8.21;73.50
27984;BME280;15317;50.360;8.726;2023-03-16T17:09:00;99415.75;;;8.09;74.07
27984;BME280;15317;50.360;8.726;2023-03-16T17:13:04;99409.94;;;8.04;74.30
27984;BME280;15317;50.360;8.726;2023-03-16T17:17:11;99406.94;;;7.88;75.68
27984;BME280;15317;50.360;8.726;2023-03-16T17:21:15;99411.09;;;7.73;76.69
27984;BME280;15317;50.360;8.726;2023-03-16T17:25:19;99408.97;;;7.76;76.25
27984;BME280;15317;50.360;8.726;2023-03-16T17:29:26;99399.44;;;7.63;77.10
27984;BME280;15317;50.360;8.726;2023-03-16T17:33:29;99401.88;;;7.46;79.19
27984;BME280;15317;50.360;8.726;2023-03-16T17:37:31;99399.00;;;7.38;78.83
27984;BME280;15317;50.360;8.726;2023-03-16T17:41:33;99395.75;;;7.35;78.83
27984;BME280;15317;50.360;8.726;2023-03-16T17:45:37;99408.13;;;7.28;79.95
27984;BME280;15317;50.360;8.726;2023-03-16T17:49:39;99399.44;;;7.14;80.07
27984;BME280;15317;50.360;8.726;2023-03-16T17:53:41;99405.53;;;7.07;80.60
27984;BME280;15317;50.360;8.726;2023-03-16T17:57:43;99392.31;;;7.04;81.16
27984;BME280;15317;50.360;8.726;2023-03-16T18:01:47;99391.44;;;6.94;82.06
27984;BME280;15317;50.360;8.726;2023-03-16T18:05:49;99385.03;;;6.85;82.03
27984;BME280;15317;50.360;8.726;2023-03-16T18:09:51;99388.16;;;6.81;82.12
27984;BME280;15317;50.360;8.726;2023-03-16T18:13:54;99384.00;;;6.77;81.94
27984;BME280;15317;50.360;8.726;2023-03-16T18:17:58;99381.31;;;6.77;82.48
27984;BME280;15317;50.360;8.726;2023-03-16T18:22:01;99376.28;;;6.62;83.21
27984;BME280;15317;50.360;8.726;2023-03-16T18:26:03;99390.75;;;6.52;84.51
27984;BME280;15317;50.360;8.726;2023-03-16T18:30:07;99382.78;;;6.50;84.15
27984;BME280;15317;50.360;8.726;2023-03-16T18:34:18;99385.91;;;6.46;84.27
27984;BME280;15317;50.360;8.726;2023-03-16T18:38:26;99390.72;;;6.42;84.19
27984;BME280;15317;50.360;8.726;2023-03-16T18:42:29;99377.06;;;6.34;83.97
27984;BME280;15317;50.360;8.726;2023-03-16T18:46:34;99386.69;;;6.27;84.90
27984;BME280;15317;50.360;8.726;2023-03-16T18:50:39;99380.66;;;6.14;86.14
27984;BME280;15317;50.360;8.726;2023-03-16T18:54:43;99379.22;;;6.10;86.01
27984;BME280;15317;50.360;8.726;2023-03-16T18:58:47;99383.97;;;5.97;87.39
27984;BME280;15317;50.360;8.726;2023-03-16T19:02:51;99379.28;;;5.78;87.80
27984;BME280;15317;50.360;8.726;2023-03-16T19:06:56;99383.19;;;5.64;89.04
27984;BME280;15317;50.360;8.726;2023-03-16T19:11:00;99380.53;;;5.53;90.51
27984;BME280;15317;50.360;8.726;2023-03-16T19:15:13;99379.22;;;5.47;90.38
27984;BME280;15317;50.360;8.726;2023-03-16T19:19:16;99373.25;;;5.44;90.90
27984;BME280;15317;50.360;8.726;2023-03-16T19:23:24;99377.91;;;5.42;90.75
27984;BME280;15317;50.360;8.726;2023-03-16T19:27:32;99381.44;;;5.42;91.46
27984;BME280;15317;50.360;8.726;2023-03-16T19:31:36;99386.72;;;5.44;90.59
27984;BME280;15317;50.360;8.726;2023-03-16T19:35:38;99387.06;;;5.39;90.57
27984;BME280;15317;50.360;8.726;2023-03-16T19:39:41;99388.47;;;5.34;90.89
27984;BME280;15317;50.360;8.726;2023-03-16T19:43:44;99375.50;;;5.28;91.53
27984;BME280;15317;50.360;8.726;2023-03-16T19:47:47;99375.19;;;5.21;91.62
27984;BME280;15317;50.360;8.726;2023-03-16T19:51:51;99359.66;;;5.13;91.77
27984;BME280;15317;50.360;8.726;2023-03-16T19:55:54;99368.53;;;5.04;92.35
27984;BME280;15317;50.360;8.726;2023-03-16T19:59:57;99363.03;;;4.95;92.76
27984;BME280;15317;50.360;8.726;2023-03-16T20:03:59;99360.47;;;4.93;93.32
27984;BME280;15317;50.360;8.726;2023-03-16T20:08:16;99360.00;;;4.88;94.26
27984;BME280;15317;50.360;8.726;2023-03-16T20:12:23;99358.41;;;4.86;94.16
27984;BME280;15317;50.360;8.726;2023-03-16T20:16:27;99351.72;;;4.80;94.77
27984;BME280;15317;50.360;8.726;2023-03-16T20:20:31;99364.81;;;4.73;95.24
27984;BME280;15317;50.360;8.726;2023-03-16T20:24:34;99359.09;;;4.67;96.01
27984;BME280;15317;50.360;8.726;2023-03-16T20:28:38;99348.84;;;4.61;96.34
27984;BME280;15317;50.360;8.726;2023-03-16T20:32:40;99354.59;;;4.56;96.98
27984;BME280;15317;50.360;8.726;2023-03-16T20:36:42;99352.25;;;4.63;96.34
27984;BME280;15317;50.360;8.726;2023-03-16T20:40:48;99346.25;;;4.70;95.75
27984;BME280;15317;50.360;8.726;2023-03-16T20:44:52;99348.09;;;4.70;96.07
27984;BME280;15317;50.360;8.726;2023-03-16T20:48:54;99341.84;;;4.69;95.52
27984;BME280;15317;50.360;8.726;2023-03-16T20:52:56;99341.84;;;4.69;95.63
27984;BME280;15317;50.360;8.726;2023-03-16T20:56:58;99334.13;;;4.65;95.60
27984;BME280;15317;50.360;8.726;2023-03-16T21:01:02;99336.13;;;4.63;95.38
27984;BME280;15317;50.360;8.726;2023-03-16T21:05:06;99331.72;;;4.62;95.23
27984;BME280;15317;50.360;8.726;2023-03-16T21:09:08;99334.66;;;4.59;94.95
27984;BME280;15317;50.360;8.726;2023-03-16T21:13:17;99329.25;;;4.59;95.18
27984;BME280;15317;50.360;8.726;2023-03-16T21:17:24;99322.44;;;4.55;94.61
27984;BME280;15317;50.360;8.726;2023-03-16T21:21:27;99325.50;;;4.50;95.27
27984;BME280;15317;50.360;8.726;2023-03-16T21:25:31;99324.03;;;4.46;94.98
27984;BME280;15317;50.360;8.726;2023-03-16T21:29:34;99315.38;;;4.31;95.60
27984;BME280;15317;50.360;8.726;2023-03-16T21:33:39;99324.34;;;4.21;96.30
27984;BME280;15317;50.360;8.726;2023-03-16T21:37:44;99306.88;;;4.15;97.97
27984;BME280;15317;50.360;8.726;2023-03-16T21:41:46;99302.00;;;4.09;99.11